sensor_id;sensor_type;location;lat;lon;timestamp;pressure;altitude;pressure_sealevel;temperature;humidity
20119;BME280;10220;42.716;23.306;2023-12-20T00:01:45;95657.53;;;2.82;100.00
20119;BME280;10220;42.716;23.306;2023-12-20T00:04:10;95651.03;;;3.56;100.00
20119;BME280;10220;42.716;23.306;2023-12-20T00:06:36;95634.00;;;3.47;100.00
20119;BME280;10220;42.716;23.306;2023-12-20T00:09:01;95646.06;;;4.39;100.00
20119;BME280;10220;42.716;23.306;2023-12-20T00:11:27;95643.50;;;4.72;100.00
20119;BME280;10220;42.716;23.306;2023-12-20T00:13:52;95624.91;;;4.29;100.00
20119;BME280;10220;42.716;23.306;2023-12-20T00:16:18;95637.94;;;4.43;100.00
20119;BME280;10220;42.716;23.306;2023-12-20T00:18:44;95635.91;;;4.21;100.00
20119;BME280;10220;42.716;23.306;2023-12-20T00:21:09;95637.84;;;4.19;100.00
20119;BME280;10220;42.716;23.306;2023-12-20T00:23:35;95628.75;;;4.33;100.00
20119;BME280;10220;42.716;23.306;2023-12-20T00:26:00;95612.03;;;4.62;100.00
20119;BME280;10220;42.716;23.306;2023-12-20T00:28:26;95625.47;;;4.48;100.00
20119;BME280;10220;42.716;23.306;2023-12-20T00:30:51;95609.53;;;4.78;100.00
20119;BME280;10220;42.716;23.306;2023-12-20T00:33:17;95605.38;;;4.36;100.00
20119;BME280;10220;42.716;23.306;2023-12-20T00:35:42;95622.19;;;4.71;100.00
20119;BME280;10220;42.716;23.306;2023-12-20T00:38:08;95617.84;;;4.72;100.00
20119;BME280;10220;42.716;23.306;2023-12-20T00:40:34;95612.91;;;4.37;100.00
20119;BME280;10220;42.716;23.306;2023-12-20T00:43:00;95610.50;;;4.36;100.00
20119;BME280;10220;42.716;23.306;2023-12-20T00:45:25;95618.47;;;2.72;100.00
20119;BME280;10220;42.716;23.306;2023-12-20T00:47:51;95616.00;;;1.99;100.00
20119;BME280;10220;42.716;23.306;2023-12-20T00:50:17;95609.53;;;1.69;100.00
20119;BME280;10220;42.716;23.306;2023-12-20T00:52:42;95617.25;;;1.50;100.00
20119;BME280;10220;42.716;23.306;2023-12-20T00:55:07;95602.91;;;1.39;100.00
20119;BME280;10220;42.716;23.306;2023-12-20T00:57:34;95616.06;;;1.44;100.00
20119;BME280;10220;42.716;23.306;2023-12-20T00:59:59;95594.03;;;1.43;100.00
20119;BME280;10220;42.716;23.306;2023-12-20T01:02:25;95611.00;;;1.07;100.00
20119;BME280;10220;42.716;23.306;2023-12-20T01:04:50;95594.72;;;0.42;100.00
20119;BME280;10220;42.716;23.306;2023-12-20T01:07:15;95607.50;;;0.79;100.00
20119;BME280;10220;42.716;23.306;2023-12-20T01:09:41;95598.78;;;0.82;100.00
20119;BME280;10220;42.716;23.306;2023-12-20T01:12:06;95600.38;;;0.73;100.00
20119;BME280;10220;42.716;23.306;2023-12-20T01:14:32;95583.88;;;0.87;100.00
20119;BME280;10220;42.716;23.306;2023-12-20T01:16:58;95594.19;;;0.95;100.00
20119;BME280;10220;42.716;23.306;2023-12-20T01:19:24;95599.44;;;0.84;100.00
20119;BME280;10220;42.716;23.306;2023-12-20T01:21:50;95589.50;;;0.62;100.00
20119;BME280;10220;42.716;23.306;2023-12-20T01:24:15;95592.84;;;0.44;100.00
20119;BME280;10220;42.716;23.306;2023-12-20T01:26:40;95582.00;;;0.60;100.00
20119;BME280;10220;42.716;23.306;2023-12-20T01:29:06;95587.09;;;0.70;100.00
20119;BME280;10220;42.716;23.306;2023-12-20T01:31:32;95565.25;;;0.86;100.00
20119;BME280;10220;42.716;23.306;2023-12-20T01:33:57;95576.66;;;0.73;100.00
20119;BME280;10220;42.716;23.306;2023-12-20T01:36:22;95568.19;;;0.72;100.00
20119;BME280;10220;42.716;23.306;2023-12-20T01:38:48;95563.00;;;0.06;100.00
20119;BME280;10220;42.716;23.306;2023-12-20T01:41:13;95568.41;;;-0.26;100.00
20119;BME280;10220;42.716;23.306;2023-12-20T01:43:39;95572.19;;;-0.51;100.00
20119;BME280;10220;42.716;23.306;2023-12-20T01:46:04;95557.59;;;-0.49;100.00
20119;BME280;10220;42.716;23.306;2023-12-20T01:48:30;95543.56;;;-0.43;100.00
20119;BME280;10220;42.716;23.306;2023-12-20T01:51:02;95548.78;;;-0.45;100.00
20119;BME280;10220;42.716;23.306;2023-12-20T01:53:28;95543.19;;;-0.39;100.00
20119;BME280;10220;42.716;23.306;2023-12-20T01:55:55;95524.09;;;-0.24;100.00
20119;BME280;10220;42.716;23.306;2023-12-20T01:58:22;95541.41;;;-0.08;100.00
20119;BME280;10220;42.716;23.306;2023-12-20T02:00:48;95541.34;;;-0.27;100.00
20119;BME280;10220;42.716;23.306;2023-12-20T02:03:14;95530.97;;;-0.05;100.00
20119;BME280;10220;42.716;23.306;2023-12-20T02:05:39;95539.28;;;-0.03;100.00
20119;BME280;10220;42.716;23.306;2023-12-20T02:08:06;95533.09;;;-0.10;100.00
20119;BME280;10220;42.716;23.306;2023-12-20T02:10:31;95525.06;;;-0.06;100.00
20119;BME280;10220;42.716;23.306;2023-12-20T02:12:58;95533.50;;;-0.05;100.00
20119;BME280;10220;42.716;23.306;2023-12-20T02:15:24;95526.69;;;-0.05;100.00
20119;BME280;10220;42.716;23.306;2023-12-20T02:17:49;95527.50;;;0.05;100.00
20119;BME280;10220;42.716;23.306;2023-12-20T02:20:15;95511.16;;;-0.02;100.00
20119;BME280;10220;42.716;23.306;2023-12-20T02:22:41;95526.47;;;0.26;100.00
20119;BME280;10220;42.716;23.306;2023-12-20T02:25:07;95513.19;;;0.13;100.00
20119;BME280;10220;42.716;23.306;2023-12-20T02:27:32;95510.47;;;-0.04;100.00
20119;BME280;10220;42.716;23.306;2023-12-20T02:29:58;95511.66;;;-0.08;100.00
20119;BME280;10220;42.716;23.306;2023-12-20T02:32:24;95504.84;;;-0.07;100.00
20119;BME280;10220;42.716;23.306;2023-12-20T02:34:54;95503.94;;;-0.06;100.00
20119;BME280;10220;42.716;23.306;2023-12-20T02:37:20;95501.53;;;0.01;100.00
20119;BME280;10220;42.716;23.306;2023-12-20T02:39:45;95507.81;;;-0.02;100.00
20119;BME280;10220;42.716;23.306;2023-12-20T02:42:11;95494.03;;;-0.39;100.00
20119;BME280;10220;42.716;23.306;2023-12-20T02:44:36;95489.16;;;-0.22;100.00
20119;BME280;10220;42.716;23.306;2023-12-20T02:47:02;95499.28;;;-0.31;100.00
20119;BME280;10220;42.716;23.306;2023-12-20T02:49:28;95498.16;;;-0.08;100.00
20119;BME280;10220;42.716;23.306;2023-12-20T02:51:53;95487.41;;;-0.31;100.00
20119;BME280;10220;42.716;23.306;2023-12-20T02:54:19;95489.16;;;-0.22;100.00
20119;BME280;10220;42.716;23.306;2023-12-20T02:56:44;95487.47;;;-0.02;100.00
20119;BME280;10220;42.716;23.306;2023-12-20T02:59:10;95465.44;;;-0.22;100.00
20119;BME280;10220;42.716;23.306;2023-12-20T03:01:41;95498.84;;;0.03;100.00
20119;BME280;10220;42.716;23.306;2023-12-20T03:04:07;95495.09;;;-0.02;100.00
20119;BME280;10220;42.716;23.306;2023-12-20T03:06:33;95504.13;;;-0.28;100.00
20119;BME280;10220;42.716;23.306;2023-12-20T03:08:58;95496.94;;;-0.14;100.00
20119;BME280;10220;42.716;23.306;2023-12-20T03:11:27;95480.56;;;-0.30;100.00
20119;BME280;10220;42.716;23.306;2023-12-20T03:13:52;95478.78;;;-0.39;100.00
20119;BME280;10220;42.716;23.306;2023-12-20T03:16:18;95481.69;;;-0.04;100.00
20119;BME280;10220;42.716;23.306;2023-12-20T03:18:44;95472.41;;;-0.24;100.00
20119;BME280;10220;42.716;23.306;2023-12-20T03:21:09;95474.03;;;-0.04;100.00
20119;BME280;10220;42.716;23.306;2023-12-20T03:23:34;95466.41;;;-0.04;100.00
20119;BME280;10220;42.716;23.306;2023-12-20T03:26:00;95483.41;;;-0.14;100.00
20119;BME280;10220;42.716;23.306;2023-12-20T03:28:27;95469.88;;;-0.15;100.00
20119;BME280;10220;42.716;23.306;2023-12-20T03:30:53;95470.84;;;-0.55;100.00
20119;BME280;10220;42.716;23.306;2023-12-20T03:33:18;95472.91;;;-0.40;100.00
20119;BME280;10220;42.716;23.306;2023-12-20T03:35:44;95478.78;;;-0.39;100.00
20119;BME280;10220;42.716;23.306;2023-12-20T03:38:09;95480.53;;;-0.79;100.00
20119;BME280;10220;42.716;23.306;2023-12-20T03:40:35;95476.66;;;-0.73;100.00
20119;BME280;10220;42.716;23.306;2023-12-20T03:43:00;95457.25;;;-0.74;100.00
20119;BME280;10220;42.716;23.306;2023-12-20T03:45:26;95444.34;;;-0.62;100.00
20119;BME280;10220;42.716;23.306;2023-12-20T03:47:51;95454.41;;;-0.42;100.00
20119;BME280;10220;42.716;23.306;2023-12-20T03:50:25;95472.63;;;-0.46;100.00
20119;BME280;10220;42.716;23.306;2023-12-20T03:52:51;95455.66;;;-0.27;100.00
20119;BME280;10220;42.716;23.306;2023-12-20T03:55:16;95455.75;;;-0.38;100.00
20119;BME280;10220;42.716;23.306;2023-12-20T03:57:42;95464.25;;;-0.18;100.00
20119;BME280;10220;42.716;23.306;2023-12-20T04:00:07;95471.22;;;-0.11;100.00
20119;BME280;10220;42.716;23.306;2023-12-20T04:02:40;95466.91;;;-0.20;100.00
20119;BME280;10220;42.716;23.306;2023-12-20T04:05:06;95455.16;;;-0.11;100.00
20119;BME280;10220;42.716;23.306;2023-12-20T04:07:32;95437.44;;;-0.41;100.00
20119;BME280;10220;42.716;23.306;2023-12-20T04:09:58;95450.25;;;-0.91;100.00
20119;BME280;10220;42.716;23.306;2023-12-20T04:12:24;95434.16;;;-0.62;100.00
20119;BME280;10220;42.716;23.306;2023-12-20T04:14:49;95438.59;;;-0.55;100.00
20119;BME280;10220;42.716;23.306;2023-12-20T04:17:15;95434.78;;;-0.30;100.00
20119;BME280;10220;42.716;23.306;2023-12-20T04:19:42;95440.06;;;-0.52;100.00
20119;BME280;10220;42.716;23.306;2023-12-20T04:22:07;95433.13;;;-0.50;100.00
20119;BME280;10220;42.716;23.306;2023-12-20T04:24:33;95429.53;;;-0.29;100.00
20119;BME280;10220;42.716;23.306;2023-12-20T04:26:58;95427.28;;;-0.32;100.00
20119;BME280;10220;42.716;23.306;2023-12-20T04:29:24;95420.47;;;-0.22;100.00
20119;BME280;10220;42.716;23.306;2023-12-20T04:31:49;95416.16;;;-0.40;100.00
20119;BME280;10220;42.716;23.306;2023-12-20T04:34:17;95429.41;;;-0.37;100.00
20119;BME280;10220;42.716;23.306;2023-12-20T04:36:43;95421.81;;;-0.18;100.00
20119;BME280;10220;42.716;23.306;2023-12-20T04:39:08;95407.56;;;-0.39;100.00
20119;BME280;10220;42.716;23.306;2023-12-20T04:41:34;95429.25;;;-0.35;100.00
20119;BME280;10220;42.716;23.306;2023-12-20T04:43:59;95420.72;;;-0.25;100.00
20119;BME280;10220;42.716;23.306;2023-12-20T04:46:26;95420.47;;;-0.22;100.00
20119;BME280;10220;42.716;23.306;2023-12-20T04:48:51;95421.06;;;-0.48;100.00
20119;BME280;10220;42.716;23.306;2023-12-20T04:51:17;95421.13;;;-0.29;100.00
20119;BME280;10220;42.716;23.306;2023-12-20T04:53:42;95409.06;;;-0.27;100.00
20119;BME280;10220;42.716;23.306;2023-12-20T04:56:08;95416.31;;;-0.32;100.00
20119;BME280;10220;42.716;23.306;2023-12-20T04:58:33;95423.28;;;-0.83;100.00
20119;BME280;10220;42.716;23.306;2023-12-20T05:00:59;95409.16;;;-0.96;100.00
20119;BME280;10220;42.716;23.306;2023-12-20T05:03:24;95414.97;;;-0.85;100.00
20119;BME280;10220;42.716;23.306;2023-12-20T05:05:50;95424.00;;;-0.62;100.00
20119;BME280;10220;42.716;23.306;2023-12-20T05:08:15;95405.44;;;-0.44;100.00
20119;BME280;10220;42.716;23.306;2023-12-20T05:10:41;95396.75;;;-0.22;100.00
20119;BME280;10220;42.716;23.306;2023-12-20T05:13:07;95399.72;;;-0.27;100.00
20119;BME280;10220;42.716;23.306;2023-12-20T05:15:33;95398.63;;;-0.34;100.00
20119;BME280;10220;42.716;23.306;2023-12-20T05:17:58;95396.81;;;-0.71;100.00
20119;BME280;10220;42.716;23.306;2023-12-20T05:20:24;95391.25;;;-0.56;100.00
20119;BME280;10220;42.716;23.306;2023-12-20T05:22:49;95401.44;;;-0.37;100.00
20119;BME280;10220;42.716;23.306;2023-12-20T05:25:15;95400.91;;;-0.31;100.00
20119;BME280;10220;42.716;23.306;2023-12-20T05:27:40;95396.66;;;-0.11;100.00
20119;BME280;10220;42.716;23.306;2023-12-20T05:30:06;95379.59;;;-0.39;100.00
20119;BME280;10220;42.716;23.306;2023-12-20T05:32:32;95385.78;;;-0.32;100.00
20119;BME280;10220;42.716;23.306;2023-12-20T05:34:57;95385.25;;;-0.17;100.00
20119;BME280;10220;42.716;23.306;2023-12-20T05:37:23;95392.38;;;-0.69;100.00
20119;BME280;10220;42.716;23.306;2023-12-20T05:39:48;95388.41;;;-0.71;100.00
20119;BME280;10220;42.716;23.306;2023-12-20T05:42:14;95389.34;;;-0.63;100.00
20119;BME280;10220;42.716;23.306;2023-12-20T05:44:39;95331.38;;;-0.78;100.00
20119;BME280;10220;42.716;23.306;2023-12-20T05:47:05;95361.66;;;-0.57;100.00
20119;BME280;10220;42.716;23.306;2023-12-20T05:49:30;95377.75;;;-0.28;100.00
20119;BME280;10220;42.716;23.306;2023-12-20T05:51:56;95368.63;;;-0.21;100.00
20119;BME280;10220;42.716;23.306;2023-12-20T05:54:22;95368.38;;;0.01;100.00
20119;BME280;10220;42.716;23.306;2023-12-20T05:56:48;95357.41;;;-0.47;100.00
20119;BME280;10220;42.716;23.306;2023-12-20T05:59:14;95367.19;;;-0.23;100.00
20119;BME280;10220;42.716;23.306;2023-12-20T06:01:39;95361.97;;;-0.22;100.00
20119;BME280;10220;42.716;23.306;2023-12-20T06:04:05;95360.50;;;-0.34;100.00
20119;BME280;10220;42.716;23.306;2023-12-20T06:06:30;95361.69;;;-0.28;100.00
20119;BME280;10220;42.716;23.306;2023-12-20T06:08:56;95359.13;;;-0.19;100.00
20119;BME280;10220;42.716;23.306;2023-12-20T06:11:21;95370.34;;;-0.68;100.00
20119;BME280;10220;42.716;23.306;2023-12-20T06:13:47;95361.78;;;-0.67;100.00
20119;BME280;10220;42.716;23.306;2023-12-20T06:16:14;95349.59;;;-0.64;100.00
20119;BME280;10220;42.716;23.306;2023-12-20T06:18:40;95367.16;;;-0.52;100.00
20119;BME280;10220;42.716;23.306;2023-12-20T06:21:05;95375.34;;;-0.39;100.00
20119;BME280;10220;42.716;23.306;2023-12-20T06:23:32;95374.22;;;-0.55;100.00
20119;BME280;10220;42.716;23.306;2023-12-20T06:25:58;95372.47;;;-0.73;100.00
20119;BME280;10220;42.716;23.306;2023-12-20T06:28:23;95368.34;;;-0.46;100.00
20119;BME280;10220;42.716;23.306;2023-12-20T06:30:48;95363.97;;;-0.44;100.00
20119;BME280;10220;42.716;23.306;2023-12-20T06:33:15;95362.22;;;-0.34;100.00
20119;BME280;10220;42.716;23.306;2023-12-20T06:35:40;95372.31;;;-0.81;100.00
20119;BME280;10220;42.716;23.306;2023-12-20T06:38:06;95367.41;;;-1.03;100.00
20119;BME280;10220;42.716;23.306;2023-12-20T06:40:31;95364.91;;;-0.94;100.00
20119;BME280;10220;42.716;23.306;2023-12-20T06:42:57;95358.94;;;-1.22;100.00
20119;BME280;10220;42.716;23.306;2023-12-20T06:45:22;95365.53;;;-1.40;100.00
20119;BME280;10220;42.716;23.306;2023-12-20T06:47:48;95345.88;;;-1.09;100.00
20119;BME280;10220;42.716;23.306;2023-12-20T06:50:13;95342.09;;;-0.84;100.00
20119;BME280;10220;42.716;23.306;2023-12-20T06:52:39;95347.19;;;-0.56;100.00
20119;BME280;10220;42.716;23.306;2023-12-20T06:55:05;95341.72;;;-0.33;100.00
20119;BME280;10220;42.716;23.306;2023-12-20T06:57:30;95335.28;;;-0.08;100.00
20119;BME280;10220;42.716;23.306;2023-12-20T06:59:56;95342.25;;;-0.48;100.00
20119;BME280;10220;42.716;23.306;2023-12-20T07:02:23;95330.44;;;-0.77;100.00
20119;BME280;10220;42.716;23.306;2023-12-20T07:04:48;95334.09;;;-0.52;100.00
20119;BME280;10220;42.716;23.306;2023-12-20T07:07:14;95329.56;;;-0.39;100.00
20119;BME280;10220;42.716;23.306;2023-12-20T07:09:39;95329.13;;;-0.25;100.00
20119;BME280;10220;42.716;23.306;2023-12-20T07:12:08;95318.69;;;-0.12;100.00
20119;BME280;10220;42.716;23.306;2023-12-20T07:14:33;95312.09;;;0.13;100.00
20119;BME280;10220;42.716;23.306;2023-12-20T07:16:59;95326.16;;;0.17;100.00
20119;BME280;10220;42.716;23.306;2023-12-20T07:19:24;95319.81;;;0.31;100.00
20119;BME280;10220;42.716;23.306;2023-12-20T07:21:50;95310.72;;;0.38;100.00
20119;BME280;10220;42.716;23.306;2023-12-20T07:24:15;95319.00;;;0.40;100.00
20119;BME280;10220;42.716;23.306;2023-12-20T07:26:41;95320.28;;;0.53;100.00
20119;BME280;10220;42.716;23.306;2023-12-20T07:29:06;95322.34;;;0.50;100.00
20119;BME280;10220;42.716;23.306;2023-12-20T07:31:32;95311.84;;;0.53;100.00
20119;BME280;10220;42.716;23.306;2023-12-20T07:33:57;95307.06;;;0.50;100.00
20119;BME280;10220;42.716;23.306;2023-12-20T07:36:23;95309.69;;;0.57;100.00
20119;BME280;10220;42.716;23.306;2023-12-20T07:38:48;95294.13;;;0.60;100.00
20119;BME280;10220;42.716;23.306;2023-12-20T07:41:14;95312.69;;;0.80;100.00
20119;BME280;10220;42.716;23.306;2023-12-20T07:43:41;95305.94;;;0.61;100.00
20119;BME280;10220;42.716;23.306;2023-12-20T07:46:08;95319.41;;;0.81;100.00
20119;BME280;10220;42.716;23.306;2023-12-20T07:48:37;95309.25;;;0.26;100.00
20119;BME280;10220;42.716;23.306;2023-12-20T07:51:03;95303.84;;;-0.17;100.00
20119;BME280;10220;42.716;23.306;2023-12-20T07:53:29;95303.41;;;-0.03;100.00
20119;BME280;10220;42.716;23.306;2023-12-20T07:55:55;95301.78;;;0.15;100.00
20119;BME280;10220;42.716;23.306;2023-12-20T07:58:20;95283.97;;;-0.04;100.00
20119;BME280;10220;42.716;23.306;2023-12-20T08:00:46;95309.44;;;0.05;100.00
20119;BME280;10220;42.716;23.306;2023-12-20T08:03:11;95312.91;;;0.14;100.00
20119;BME280;10220;42.716;23.306;2023-12-20T08:05:38;95295.06;;;0.14;100.00
20119;BME280;10220;42.716;23.306;2023-12-20T08:08:06;95283.38;;;0.30;100.00
20119;BME280;10220;42.716;23.306;2023-12-20T08:10:31;95290.88;;;0.32;100.00
20119;BME280;10220;42.716;23.306;2023-12-20T08:12:57;95298.03;;;0.55;100.00
20119;BME280;10220;42.716;23.306;2023-12-20T08:15:22;95270.75;;;0.38;100.00
20119;BME280;10220;42.716;23.306;2023-12-20T08:17:49;95291.81;;;0.67;100.00
20119;BME280;10220;42.716;23.306;2023-12-20T08:20:16;95279.00;;;0.59;100.00
20119;BME280;10220;42.716;23.306;2023-12-20T08:22:42;95274.69;;;0.86;100.00
20119;BME280;10220;42.716;23.306;2023-12-20T08:25:07;95275.16;;;0.72;100.00
20119;BME280;10220;42.716;23.306;2023-12-20T08:27:38;95272.78;;;0.88;100.00
20119;BME280;10220;42.716;23.306;2023-12-20T08:30:04;95268.03;;;1.03;100.00
20119;BME280;10220;42.716;23.306;2023-12-20T08:32:29;95263.66;;;1.13;100.00
20119;BME280;10220;42.716;23.306;2023-12-20T08:34:55;95274.69;;;1.30;100.00
20119;BME280;10220;42.716;23.306;2023-12-20T08:37:20;95259.72;;;1.18;100.00
20119;BME280;10220;42.716;23.306;2023-12-20T08:39:46;95261.28;;;1.28;100.00
20119;BME280;10220;42.716;23.306;2023-12-20T08:42:11;95267.59;;;1.24;100.00
20119;BME280;10220;42.716;23.306;2023-12-20T08:44:37;95256.97;;;1.46;100.00
20119;BME280;10220;42.716;23.306;2023-12-20T08:47:02;95258.59;;;0.59;100.00
20119;BME280;10220;42.716;23.306;2023-12-20T08:49:28;95250.63;;;0.98;100.00
20119;BME280;10220;42.716;23.306;2023-12-20T08:51:54;95239.78;;;0.96;100.00
20119;BME280;10220;42.716;23.306;2023-12-20T08:54:19;95239.34;;;0.74;100.00
20119;BME280;10220;42.716;23.306;2023-12-20T08:56:45;95257.25;;;1.09;100.00
20119;BME280;10220;42.716;23.306;2023-12-20T08:59:11;95239.63;;;0.98;100.00
20119;BME280;10220;42.716;23.306;2023-12-20T09:01:37;95241.09;;;1.00;100.00
20119;BME280;10220;42.716;23.306;2023-12-20T09:04:02;95223.59;;;1.05;100.00
20119;BME280;10220;42.716;23.306;2023-12-20T09:06:28;95221.16;;;1.13;100.00
20119;BME280;10220;42.716;23.306;2023-12-20T09:08:53;95185.88;;;1.09;100.00
20119;BME280;10220;42.716;23.306;2023-12-20T09:11:19;95195.41;;;0.89;100.00
20119;BME280;10220;42.716;23.306;2023-12-20T09:13:44;95198.53;;;0.83;100.00
20119;BME280;10220;42.716;23.306;2023-12-20T09:16:10;95196.00;;;0.83;100.00
20119;BME280;10220;42.716;23.306;2023-12-20T09:18:35;95190.38;;;0.80;100.00
20119;BME280;10220;42.716;23.306;2023-12-20T09:21:01;95159.78;;;0.97;100.00
20119;BME280;10220;42.716;23.306;2023-12-20T09:23:27;95177.81;;;1.13;100.00
20119;BME280;10220;42.716;23.306;2023-12-20T09:25:53;95160.16;;;1.02;100.00
20119;BME280;10220;42.716;23.306;2023-12-20T09:28:19;95166.69;;;1.39;100.00
20119;BME280;10220;42.716;23.306;2023-12-20T09:30:44;95163.75;;;1.52;100.00
20119;BME280;10220;42.716;23.306;2023-12-20T09:33:11;95144.56;;;1.65;100.00
20119;BME280;10220;42.716;23.306;2023-12-20T09:35:37;95146.41;;;1.55;100.00
20119;BME280;10220;42.716;23.306;2023-12-20T09:38:02;95144.09;;;1.44;100.00
20119;BME280;10220;42.716;23.306;2023-12-20T09:40:29;95124.88;;;1.58;100.00
20119;BME280;10220;42.716;23.306;2023-12-20T09:42:58;95125.91;;;1.22;100.00
20119;BME280;10220;42.716;23.306;2023-12-20T09:45:26;95129.63;;;1.27;100.00
20119;BME280;10220;42.716;23.306;2023-12-20T09:47:53;95128.06;;;1.09;100.00
20119;BME280;10220;42.716;23.306;2023-12-20T09:50:20;95116.84;;;1.45;100.00
20119;BME280;10220;42.716;23.306;2023-12-20T09:52:50;95117.44;;;1.64;100.00
20119;BME280;10220;42.716;23.306;2023-12-20T09:55:17;95114.78;;;1.73;100.00
20119;BME280;10220;42.716;23.306;2023-12-20T09:57:44;95105.47;;;1.65;100.00
20119;BME280;10220;42.716;23.306;2023-12-20T10:00:10;95103.63;;;1.74;100.00
20119;BME280;10220;42.716;23.306;2023-12-20T10:02:38;95096.16;;;1.81;100.00
20119;BME280;10220;42.716;23.306;2023-12-20T10:05:08;95091.72;;;1.58;100.00
20119;BME280;10220;42.716;23.306;2023-12-20T10:07:36;95082.13;;;1.85;100.00
20119;BME280;10220;42.716;23.306;2023-12-20T10:10:02;95089.88;;;1.68;100.00
20119;BME280;10220;42.716;23.306;2023-12-20T10:12:28;95092.97;;;1.54;100.00
20119;BME280;10220;42.716;23.306;2023-12-20T10:14:53;95089.00;;;1.84;100.00
20119;BME280;10220;42.716;23.306;2023-12-20T10:17:18;95084.50;;;1.78;100.00
20119;BME280;10220;42.716;23.306;2023-12-20T10:19:44;95079.81;;;1.99;100.00
20119;BME280;10220;42.716;23.306;2023-12-20T10:22:10;95065.88;;;1.86;100.00
20119;BME280;10220;42.716;23.306;2023-12-20T10:24:35;95068.09;;;2.22;100.00
20119;BME280;10220;42.716;23.306;2023-12-20T10:27:02;95049.25;;;2.31;100.00
20119;BME280;10220;42.716;23.306;2023-12-20T10:29:40;95062.63;;;1.76;100.00
20119;BME280;10220;42.716;23.306;2023-12-20T10:34:48;95028.38;;;2.51;100.00
20119;BME280;10220;42.716;23.306;2023-12-20T10:37:13;95049.81;;;2.74;100.00
20119;BME280;10220;42.716;23.306;2023-12-20T10:39:38;95026.94;;;3.04;100.00
20119;BME280;10220;42.716;23.306;2023-12-20T10:42:07;95015.75;;;3.21;100.00
20119;BME280;10220;42.716;23.306;2023-12-20T10:44:36;95024.72;;;3.09;100.00
20119;BME280;10220;42.716;23.306;2023-12-20T10:47:03;95006.44;;;3.28;100.00
20119;BME280;10220;42.716;23.306;2023-12-20T10:49:30;95015.50;;;3.62;100.00
20119;BME280;10220;42.716;23.306;2023-12-20T10:51:57;95010.50;;;3.61;100.00
20119;BME280;10220;42.716;23.306;2023-12-20T10:54:25;95001.09;;;3.61;100.00
20119;BME280;10220;42.716;23.306;2023-12-20T10:56:54;94999.59;;;3.75;100.00
20119;BME280;10220;42.716;23.306;2023-12-20T10:59:33;95003.59;;;3.69;100.00
20119;BME280;10220;42.716;23.306;2023-12-20T11:02:05;94977.44;;;3.90;100.00
20119;BME280;10220;42.716;23.306;2023-12-20T11:04:47;94954.75;;;3.79;100.00
20119;BME280;10220;42.716;23.306;2023-12-20T11:07:36;94979.88;;;4.13;100.00
20119;BME280;10220;42.716;23.306;2023-12-20T11:13:23;94917.78;;;4.26;100.00
20119;BME280;10220;42.716;23.306;2023-12-20T11:15:52;94936.59;;;4.41;100.00
20119;BME280;10220;42.716;23.306;2023-12-20T11:18:31;94963.41;;;3.78;100.00
20119;BME280;10220;42.716;23.306;2023-12-20T11:21:15;94934.47;;;3.39;100.00
20119;BME280;10220;42.716;23.306;2023-12-20T11:23:46;94948.03;;;3.40;100.00
20119;BME280;10220;42.716;23.306;2023-12-20T11:26:15;94956.59;;;3.16;100.00
20119;BME280;10220;42.716;23.306;2023-12-20T11:28:42;94952.28;;;3.01;100.00
20119;BME280;10220;42.716;23.306;2023-12-20T11:31:08;94938.09;;;2.90;100.00
20119;BME280;10220;42.716;23.306;2023-12-20T11:33:37;94937.09;;;3.07;100.00
20119;BME280;10220;42.716;23.306;2023-12-20T11:36:03;94919.88;;;2.78;100.00
20119;BME280;10220;42.716;23.306;2023-12-20T11:38:38;94909.50;;;2.79;100.00
20119;BME280;10220;42.716;23.306;2023-12-20T11:41:09;94905.53;;;2.69;100.00
20119;BME280;10220;42.716;23.306;2023-12-20T11:43:39;94910.19;;;2.57;100.00
20119;BME280;10220;42.716;23.306;2023-12-20T11:46:08;94913.72;;;2.48;100.00
20119;BME280;10220;42.716;23.306;2023-12-20T11:48:42;94905.06;;;2.33;100.00
20119;BME280;10220;42.716;23.306;2023-12-20T11:51:12;94882.88;;;2.42;100.00
20119;BME280;10220;42.716;23.306;2023-12-20T11:53:41;94873.28;;;2.52;100.00
20119;BME280;10220;42.716;23.306;2023-12-20T11:56:13;94887.50;;;2.54;100.00
20119;BME280;10220;42.716;23.306;2023-12-20T11:58:41;94870.91;;;2.42;100.00
20119;BME280;10220;42.716;23.306;2023-12-20T12:01:06;94869.47;;;2.56;100.00
20119;BME280;10220;42.716;23.306;2023-12-20T12:03:35;94852.56;;;2.47;100.00
20119;BME280;10220;42.716;23.306;2023-12-20T12:06:01;94857.94;;;2.52;100.00
20119;BME280;10220;42.716;23.306;2023-12-20T12:08:29;94851.53;;;2.72;100.00
20119;BME280;10220;42.716;23.306;2023-12-20T12:10:55;94846.09;;;2.75;100.00
20119;BME280;10220;42.716;23.306;2023-12-20T12:13:20;94850.19;;;2.91;100.00
20119;BME280;10220;42.716;23.306;2023-12-20T12:15:48;94840.34;;;3.19;100.00
20119;BME280;10220;42.716;23.306;2023-12-20T12:18:16;94819.88;;;2.81;100.00
20119;BME280;10220;42.716;23.306;2023-12-20T12:20:42;94825.69;;;2.59;100.00
20119;BME280;10220;42.716;23.306;2023-12-20T12:23:08;94823.31;;;2.57;100.00
20119;BME280;10220;42.716;23.306;2023-12-20T12:25:36;94824.22;;;2.64;100.00
20119;BME280;10220;42.716;23.306;2023-12-20T12:28:02;94824.28;;;2.48;100.00
20119;BME280;10220;42.716;23.306;2023-12-20T12:30:28;94832.72;;;2.49;100.00
20119;BME280;10220;42.716;23.306;2023-12-20T12:32:55;94832.56;;;2.42;100.00
20119;BME280;10220;42.716;23.306;2023-12-20T12:35:21;94820.78;;;2.49;100.00
20119;BME280;10220;42.716;23.306;2023-12-20T12:37:47;94826.34;;;2.45;100.00
20119;BME280;10220;42.716;23.306;2023-12-20T12:40:14;94832.81;;;2.71;100.00
20119;BME280;10220;42.716;23.306;2023-12-20T12:42:41;94835.59;;;2.54;100.00
20119;BME280;10220;42.716;23.306;2023-12-20T12:45:08;94819.50;;;2.37;100.00
20119;BME280;10220;42.716;23.306;2023-12-20T12:47:34;94828.78;;;2.31;100.00